createdAt,value
2023-05-16T00:01:55.678Z,16.45
2023-05-16T00:04:29.961Z,11.20
2023-05-16T00:07:03.546Z,13.55
2023-05-16T00:09:37.341Z,17.00
2023-05-16T00:12:11.643Z,15.83
2023-05-16T00:14:45.369Z,17.67
2023-05-16T00:17:20.552Z,14.05
2023-05-16T00:19:55.778Z,11.73
2023-05-16T00:22:30.912Z,11.70
2023-05-16T00:25:04.654Z,15.80
2023-05-16T00:27:38.458Z,12.70
2023-05-16T00:30:13.738Z,14.05
2023-05-16T00:32:47.338Z,16.10
2023-05-16T00:35:20.988Z,11.80
2023-05-16T00:37:56.005Z,16.80
2023-05-16T00:40:29.639Z,14.45
2023-05-16T00:43:03.123Z,11.00
2023-05-16T00:45:36.644Z,12.30
2023-05-16T00:48:10.320Z,14.00
2023-05-16T00:50:44.038Z,11.25
2023-05-16T00:53:17.770Z,11.45
2023-05-16T00:55:51.621Z,12.90
2023-05-16T00:58:26.099Z,12.85
2023-05-16T01:00:59.762Z,15.15
2023-05-16T01:03:33.930Z,13.18
2023-05-16T01:06:08.610Z,13.43
2023-05-16T01:08:42.117Z,12.13
2023-05-16T01:11:20.090Z,18.32
2023-05-16T01:13:59.196Z,13.28
2023-05-16T01:16:37.932Z,16.52
2023-05-16T01:19:17.801Z,12.68
2023-05-16T01:21:57.940Z,9.40
2023-05-16T01:24:34.535Z,20.45
2023-05-16T01:27:09.729Z,12.30
2023-05-16T01:29:43.160Z,12.75
2023-05-16T01:32:17.458Z,13.00
2023-05-16T01:34:52.203Z,11.68
2023-05-16T01:37:30.701Z,12.15
2023-05-16T01:40:08.256Z,11.75
2023-05-16T01:42:44.897Z,11.30
2023-05-16T01:45:22.216Z,8.73
2023-05-16T01:47:59.157Z,12.07
2023-05-16T01:50:35.854Z,12.33
2023-05-16T01:53:12.621Z,12.60
2023-05-16T01:55:48.866Z,13.03
2023-05-16T01:58:26.864Z,16.25
2023-05-16T02:01:06.108Z,12.65
2023-05-16T02:03:41.738Z,15.30
2023-05-16T02:06:16.855Z,18.05
2023-05-16T02:08:53.390Z,20.55
2023-05-16T02:11:29.865Z,17.32
2023-05-16T02:14:04.486Z,21.87
2023-05-16T02:16:42.151Z,17.30
2023-05-16T02:19:16.098Z,16.42
2023-05-16T02:21:50.360Z,17.52
2023-05-16T02:24:24.090Z,20.48
2023-05-16T02:26:57.793Z,16.75
2023-05-16T02:29:31.547Z,16.62
2023-05-16T02:32:05.429Z,18.32
2023-05-16T02:34:38.954Z,16.75
2023-05-16T02:37:13.617Z,18.95
2023-05-16T02:39:47.133Z,21.87
2023-05-16T02:42:21.803Z,14.03
2023-05-16T02:44:55.606Z,11.45
2023-05-16T02:47:31.147Z,20.25
2023-05-16T02:50:05.916Z,17.73
2023-05-16T02:52:40.159Z,13.88
2023-05-16T02:55:21.591Z,12.73
2023-05-16T02:57:50.860Z,14.90
2023-05-16T03:00:25.542Z,12.78
2023-05-16T03:02:59.029Z,11.03
2023-05-16T03:05:32.706Z,11.48
2023-05-16T03:08:06.955Z,12.15
2023-05-16T03:10:40.113Z,15.68
2023-05-16T03:13:13.577Z,17.73
2023-05-16T03:15:47.390Z,27.05
2023-05-16T03:18:21.260Z,16.23
2023-05-16T03:20:55.095Z,20.35
2023-05-16T03:23:29.999Z,14.50
2023-05-16T03:26:03.287Z,20.88
2023-05-16T03:28:36.561Z,14.53
2023-05-16T03:31:10.037Z,15.10
2023-05-16T03:33:46.788Z,14.87
2023-05-16T03:36:24.749Z,13.75
2023-05-16T03:38:59.275Z,15.47
2023-05-16T03:41:32.541Z,16.23
2023-05-16T03:44:13.318Z,14.07
2023-05-16T03:46:49.263Z,14.43
2023-05-16T03:49:27.407Z,17.60
2023-05-16T03:52:03.310Z,13.88
2023-05-16T03:54:46.772Z,12.58
2023-05-16T03:57:20.582Z,12.53
2023-05-16T03:59:53.822Z,17.70
2023-05-16T04:02:27.087Z,13.45
2023-05-16T04:05:00.392Z,17.92
2023-05-16T04:07:34.107Z,14.70
2023-05-16T04:12:51.319Z,14.70
2023-05-16T04:15:24.567Z,17.52
2023-05-16T04:17:58.100Z,14.00
2023-05-16T04:20:32.955Z,16.20
2023-05-16T04:23:06.638Z,15.48
2023-05-16T04:25:40.060Z,15.05
2023-05-16T04:28:13.631Z,14.63
2023-05-16T04:30:47.890Z,16.42
2023-05-16T04:33:21.540Z,14.45
2023-05-16T04:35:55.152Z,19.73
2023-05-16T04:38:28.456Z,10.32
2023-05-16T04:41:03.937Z,10.32
2023-05-16T04:43:38.096Z,11.93
2023-05-16T04:46:11.894Z,11.15
2023-05-16T04:48:46.180Z,11.48
2023-05-16T04:51:22.386Z,9.53
2023-05-16T04:53:56.696Z,8.28
2023-05-16T04:56:30.094Z,9.20
2023-05-16T04:59:04.325Z,11.90
2023-05-16T05:01:37.577Z,17.62
2023-05-16T05:04:10.979Z,9.08
2023-05-16T05:06:44.438Z,13.22
2023-05-16T05:09:18.033Z,8.05
2023-05-16T05:11:51.606Z,9.58
2023-05-16T05:14:25.014Z,12.95
2023-05-16T05:16:58.484Z,11.03
2023-05-16T05:19:31.987Z,11.83
2023-05-16T05:22:05.186Z,8.50
2023-05-16T05:24:38.605Z,8.33
2023-05-16T05:27:12.036Z,11.12
2023-05-16T05:29:45.515Z,8.73
2023-05-16T05:32:18.914Z,10.32
2023-05-16T05:34:52.728Z,8.08
2023-05-16T05:37:26.388Z,13.53
2023-05-16T05:40:00.198Z,11.48
2023-05-16T05:42:35.430Z,13.62
2023-05-16T05:45:10.855Z,7.83
2023-05-16T05:47:44.916Z,7.87
2023-05-16T05:50:18.366Z,5.08
2023-05-16T05:52:51.600Z,9.78
2023-05-16T05:55:25.543Z,11.38
2023-05-16T05:57:59.325Z,8.08
2023-05-16T06:00:33.030Z,11.57
2023-05-16T06:03:10.278Z,7.20
2023-05-16T06:05:44.054Z,6.70
2023-05-16T06:08:17.869Z,3.47
2023-05-16T06:10:51.166Z,7.05
2023-05-16T06:13:24.595Z,4.58
2023-05-16T06:15:58.147Z,4.22
2023-05-16T06:18:31.708Z,5.03
2023-05-16T06:21:06.095Z,4.15
2023-05-16T06:23:40.103Z,6.28
2023-05-16T06:26:13.649Z,5.50
2023-05-16T06:28:47.308Z,4.65
2023-05-16T06:31:20.582Z,8.98
2023-05-16T06:33:54.093Z,7.58
2023-05-16T06:36:27.566Z,4.78
2023-05-16T06:39:01.097Z,2.90
2023-05-16T06:41:34.584Z,5.30
2023-05-16T06:44:08.974Z,2.20
2023-05-16T06:46:42.581Z,3.75
2023-05-16T06:49:16.416Z,4.67
2023-05-16T06:51:49.968Z,6.10
2023-05-16T06:54:23.341Z,5.42
2023-05-16T06:56:56.745Z,5.62
2023-05-16T06:59:30.177Z,10.55
2023-05-16T07:02:03.636Z,4.37
2023-05-16T07:04:38.173Z,8.15
2023-05-16T07:07:11.874Z,3.62
2023-05-16T07:09:45.451Z,4.85
2023-05-16T07:12:18.905Z,3.77
2023-05-16T07:14:52.351Z,2.22
2023-05-16T07:17:25.824Z,3.67
2023-05-16T07:19:59.430Z,3.92
2023-05-16T07:22:33.075Z,3.47
2023-05-16T07:25:09.388Z,6.75
2023-05-16T07:27:45.432Z,4.72
2023-05-16T07:30:18.824Z,4.97
2023-05-16T07:32:52.425Z,4.50
2023-05-16T07:35:26.611Z,2.70
2023-05-16T07:38:00.433Z,4.53
2023-05-16T07:40:34.037Z,3.83
2023-05-16T07:43:07.686Z,6.25
2023-05-16T07:45:41.520Z,3.77
2023-05-16T07:48:15.067Z,3.17
2023-05-16T07:50:48.774Z,3.33
2023-05-16T07:53:22.781Z,1.25
2023-05-16T07:55:56.710Z,1.62
2023-05-16T07:58:30.585Z,4.47
2023-05-16T08:01:04.465Z,2.00
2023-05-16T08:03:38.610Z,5.35
2023-05-16T08:06:13.000Z,1.52
2023-05-16T08:08:46.858Z,2.15
2023-05-16T08:11:22.041Z,4.03
2023-05-16T08:13:55.901Z,3.75
2023-05-16T08:16:29.454Z,5.60
2023-05-16T08:19:03.156Z,5.08
2023-05-16T08:21:37.212Z,5.67
2023-05-16T08:24:11.465Z,3.47
2023-05-16T08:26:45.322Z,5.58
2023-05-16T08:29:18.753Z,4.25
2023-05-16T08:31:52.410Z,5.70
2023-05-16T08:34:25.976Z,5.10
2023-05-16T08:36:59.726Z,3.42
2023-05-16T08:39:33.507Z,4.20
2023-05-16T08:42:08.170Z,4.03
2023-05-16T08:44:42.053Z,5.47
2023-05-16T08:47:18.400Z,3.62
2023-05-16T08:49:53.965Z,4.10
2023-05-16T08:52:32.156Z,4.22
2023-05-16T08:55:11.345Z,1.87
2023-05-16T08:57:46.587Z,4.80
2023-05-16T09:00:22.624Z,6.35
2023-05-16T09:02:56.764Z,4.00
2023-05-16T09:05:31.509Z,6.42
2023-05-16T09:08:04.803Z,7.22
2023-05-16T09:10:38.231Z,7.10
2023-05-16T09:13:11.810Z,4.40
2023-05-16T09:15:45.799Z,6.08
2023-05-16T09:18:19.326Z,4.80
2023-05-16T09:20:53.526Z,4.33
2023-05-16T09:23:28.286Z,3.62
2023-05-16T09:26:01.780Z,4.05
2023-05-16T09:28:35.526Z,2.35
2023-05-16T09:31:22.838Z,5.90
2023-05-16T09:33:57.921Z,5.62
2023-05-16T09:36:33.081Z,6.53
2023-05-16T09:39:08.286Z,6.35
2023-05-16T09:41:41.792Z,3.05
2023-05-16T09:44:15.347Z,2.80
2023-05-16T09:46:48.795Z,1.87
2023-05-16T09:49:22.578Z,3.65
2023-05-16T09:51:56.257Z,1.22
2023-05-16T09:54:36.710Z,4.25
2023-05-16T09:57:10.613Z,3.37
2023-05-16T09:59:44.222Z,4.50
2023-05-16T10:02:18.276Z,7.42
2023-05-16T10:04:52.098Z,4.72
2023-05-16T10:07:25.899Z,10.35
2023-05-16T10:09:59.820Z,5.65
2023-05-16T10:12:36.531Z,4.95
2023-05-16T10:15:11.768Z,4.80
2023-05-16T10:17:47.397Z,4.42
2023-05-16T10:20:22.033Z,7.22
2023-05-16T10:22:57.547Z,10.53
2023-05-16T10:25:34.186Z,6.15
2023-05-16T10:28:08.312Z,4.03
2023-05-16T10:30:44.554Z,4.90
2023-05-16T10:33:19.856Z,4.35
2023-05-16T10:35:53.812Z,2.83
2023-05-16T10:38:28.286Z,8.30
2023-05-16T10:41:01.944Z,3.90
2023-05-16T10:43:35.554Z,4.30
2023-05-16T10:46:10.940Z,3.55
2023-05-16T10:48:45.083Z,5.17
2023-05-16T10:54:22.235Z,7.10
2023-05-16T10:56:59.100Z,3.20
2023-05-16T10:59:33.985Z,4.08
2023-05-16T11:02:10.674Z,11.63
2023-05-16T11:04:51.775Z,6.67
2023-05-16T11:07:26.011Z,3.87
2023-05-16T11:10:11.052Z,9.43
2023-05-16T11:12:49.674Z,2.25
2023-05-16T11:15:29.293Z,2.12
2023-05-16T11:18:14.325Z,2.80
2023-05-16T11:20:49.746Z,5.55
2023-05-16T11:23:27.745Z,6.53
2023-05-16T11:26:01.914Z,6.12
2023-05-16T11:28:35.672Z,2.65
2023-05-16T11:31:10.409Z,5.70
2023-05-16T11:33:45.201Z,2.60
2023-05-16T11:36:18.985Z,3.55
2023-05-16T11:38:52.782Z,2.02
2023-05-16T11:41:26.240Z,2.10
2023-05-16T11:43:59.624Z,2.58
2023-05-16T11:46:35.195Z,3.35
2023-05-16T11:49:09.670Z,5.60
2023-05-16T11:51:44.599Z,8.88
2023-05-16T11:54:20.040Z,3.80
2023-05-16T11:56:54.203Z,2.70
2023-05-16T11:59:27.802Z,4.87
2023-05-16T12:02:02.550Z,3.67
2023-05-16T12:04:36.250Z,2.95
2023-05-16T12:07:10.039Z,4.35
2023-05-16T12:09:43.645Z,8.80
2023-05-16T12:12:19.925Z,2.52
2023-05-16T12:14:53.836Z,3.83
2023-05-16T12:17:27.594Z,3.40
2023-05-16T12:20:01.837Z,8.75
2023-05-16T12:22:35.898Z,5.15
2023-05-16T12:25:24.253Z,3.30
2023-05-16T12:27:59.369Z,2.52
2023-05-16T12:30:34.857Z,4.03
2023-05-16T12:33:11.235Z,2.58
2023-05-16T12:35:46.798Z,3.02
2023-05-16T12:38:20.949Z,6.10
2023-05-16T12:40:57.233Z,5.10
2023-05-16T12:43:31.053Z,3.47
2023-05-16T12:46:06.502Z,6.40
2023-05-16T12:48:42.254Z,6.03
2023-05-16T12:51:18.300Z,9.05
2023-05-16T12:54:08.876Z,3.22
2023-05-16T12:56:29.698Z,4.58
2023-05-16T12:59:03.454Z,2.20
2023-05-16T13:01:37.889Z,3.17
2023-05-16T13:04:13.189Z,9.08
2023-05-16T13:06:57.248Z,3.70
2023-05-16T13:09:23.633Z,6.15
2023-05-16T13:11:57.121Z,3.60
2023-05-16T13:14:30.607Z,5.62
2023-05-16T13:17:04.673Z,3.92
2023-05-16T13:19:38.288Z,5.35
2023-05-16T13:22:11.686Z,4.67
2023-05-16T13:24:45.378Z,4.08
2023-05-16T13:27:19.988Z,3.10
2023-05-16T13:29:53.400Z,2.65
2023-05-16T13:32:27.275Z,3.83
2023-05-16T13:35:00.765Z,5.80
2023-05-16T13:37:35.386Z,4.42
2023-05-16T13:40:11.352Z,4.80
2023-05-16T13:42:44.905Z,8.83
2023-05-16T13:45:19.289Z,5.70
2023-05-16T13:47:53.171Z,2.75
2023-05-16T13:50:33.133Z,7.70
2023-05-16T13:53:01.905Z,6.60
2023-05-16T13:55:35.767Z,3.40
2023-05-16T13:58:09.316Z,9.15
2023-05-16T14:00:45.996Z,6.70
2023-05-16T14:03:18.127Z,5.08
2023-05-16T14:05:52.012Z,5.95
2023-05-16T14:08:25.542Z,5.42
2023-05-16T14:11:01.143Z,6.33
2023-05-16T14:13:34.282Z,3.17
2023-05-16T14:16:08.631Z,4.67
2023-05-16T14:18:42.239Z,4.05
2023-05-16T14:21:18.545Z,3.95
2023-05-16T14:23:51.849Z,4.35
2023-05-16T14:26:25.708Z,7.70
2023-05-16T14:28:59.269Z,7.50
2023-05-16T14:31:33.037Z,7.37
2023-05-16T14:34:06.695Z,13.22
2023-05-16T14:36:40.154Z,8.35
2023-05-16T14:39:14.617Z,6.80
2023-05-16T14:41:48.279Z,7.28
2023-05-16T14:44:23.936Z,8.43
2023-05-16T14:46:57.431Z,7.30
2023-05-16T14:49:30.752Z,8.25
2023-05-16T14:52:04.376Z,8.65
2023-05-16T14:54:38.033Z,6.20
2023-05-16T14:57:11.672Z,8.30
2023-05-16T14:59:45.108Z,7.53
2023-05-16T15:05:00.536Z,8.45
2023-05-16T15:07:35.413Z,6.25
2023-05-16T15:10:11.169Z,5.28
2023-05-16T15:12:44.523Z,4.12
2023-05-16T15:15:18.515Z,3.02
2023-05-16T15:17:52.193Z,8.78
2023-05-16T15:20:26.747Z,7.75
2023-05-16T15:23:02.982Z,11.25
2023-05-16T15:25:36.856Z,8.50
2023-05-16T15:28:10.542Z,4.47
2023-05-16T15:30:44.064Z,6.37
2023-05-16T15:33:17.786Z,4.97
2023-05-16T15:35:52.113Z,5.03
2023-05-16T15:38:25.748Z,3.08
2023-05-16T15:41:13.508Z,9.50
2023-05-16T15:43:34.546Z,8.05
2023-05-16T15:46:09.982Z,9.88
2023-05-16T15:48:44.951Z,7.90
2023-05-16T15:51:19.482Z,8.03
2023-05-16T15:53:53.709Z,7.22
2023-05-16T15:56:27.419Z,12.70
2023-05-16T15:59:00.975Z,6.67
2023-05-16T16:01:34.617Z,6.80
2023-05-16T16:04:08.551Z,5.37
2023-05-16T16:06:42.019Z,3.45
2023-05-16T16:09:19.056Z,4.87
2023-05-16T16:11:54.806Z,6.65
2023-05-16T16:14:29.259Z,3.42
2023-05-16T16:17:04.306Z,4.53
2023-05-16T16:19:37.662Z,5.12
2023-05-16T16:22:11.200Z,5.20
2023-05-16T16:24:44.902Z,2.83
2023-05-16T16:27:18.571Z,3.45
2023-05-16T16:29:52.306Z,4.30
2023-05-16T16:32:26.022Z,3.92
2023-05-16T16:34:59.683Z,4.70
2023-05-16T16:37:35.106Z,5.67
2023-05-16T16:40:14.909Z,6.45
2023-05-16T16:42:48.821Z,6.08
2023-05-16T16:45:24.289Z,8.13
2023-05-16T16:47:58.194Z,6.25
2023-05-16T16:50:32.862Z,3.85
2023-05-16T16:53:06.945Z,7.25
2023-05-16T16:55:41.206Z,6.03
2023-05-16T16:58:14.832Z,6.12
2023-05-16T17:00:48.414Z,5.78
2023-05-16T17:03:22.229Z,5.00
2023-05-16T17:05:57.132Z,5.42
2023-05-16T17:08:31.092Z,4.53
2023-05-16T17:11:05.542Z,7.58
2023-05-16T17:13:41.043Z,7.37
2023-05-16T17:16:14.877Z,10.13
2023-05-16T17:18:48.514Z,4.60
2023-05-16T17:21:22.475Z,6.37
2023-05-16T17:23:57.416Z,8.18
2023-05-16T17:26:31.854Z,8.13
2023-05-16T17:29:06.936Z,5.22
2023-05-16T17:31:42.318Z,6.12
2023-05-16T17:34:16.252Z,7.15
2023-05-16T17:36:49.997Z,5.50
2023-05-16T17:39:23.556Z,8.48
2023-05-16T17:41:57.536Z,6.22
2023-05-16T17:44:31.126Z,8.40
2023-05-16T17:47:05.001Z,8.83
2023-05-16T17:49:38.874Z,4.35
2023-05-16T17:52:12.837Z,7.00
2023-05-16T17:54:46.402Z,9.05
2023-05-16T17:57:19.902Z,7.40
2023-05-16T17:59:53.970Z,8.85
2023-05-16T18:02:27.644Z,9.85
2023-05-16T18:05:01.552Z,5.05
2023-05-16T18:07:36.013Z,9.85
2023-05-16T18:10:11.514Z,9.53
2023-05-16T18:12:45.687Z,7.83
2023-05-16T18:15:19.496Z,5.87
2023-05-16T18:17:52.996Z,8.30
2023-05-16T18:20:26.868Z,9.58
2023-05-16T18:23:00.819Z,8.63
2023-05-16T18:25:34.412Z,10.20
2023-05-16T18:28:08.646Z,10.70
2023-05-16T18:30:41.994Z,6.12
2023-05-16T18:33:15.640Z,8.50
2023-05-16T18:35:49.097Z,10.70
2023-05-16T18:38:32.061Z,8.73
2023-05-16T18:40:57.556Z,11.45
2023-05-16T18:43:33.237Z,10.58
2023-05-16T18:46:06.914Z,13.03
2023-05-16T18:48:40.495Z,11.73
2023-05-16T18:51:14.201Z,21.65
2023-05-16T18:53:47.549Z,12.07
2023-05-16T18:56:22.722Z,11.90
2023-05-16T18:58:57.068Z,11.95
2023-05-16T19:01:31.046Z,10.35
2023-05-16T19:04:04.806Z,15.08
2023-05-16T19:06:39.206Z,10.13
2023-05-16T19:09:12.977Z,6.75
2023-05-16T19:11:46.567Z,10.90
2023-05-16T19:14:20.904Z,9.10
2023-05-16T19:16:54.948Z,17.82
2023-05-16T19:19:29.879Z,17.73
2023-05-16T19:22:03.706Z,9.60
2023-05-16T19:24:37.401Z,9.30
2023-05-16T19:27:11.239Z,10.55
2023-05-16T19:29:45.174Z,14.23
2023-05-16T19:32:19.836Z,17.45
2023-05-16T19:34:53.787Z,11.25
2023-05-16T19:37:27.848Z,12.40
2023-05-16T19:40:01.544Z,9.75
2023-05-16T19:42:35.855Z,11.33
2023-05-16T19:45:12.235Z,10.05
2023-05-16T19:47:46.164Z,11.50
2023-05-16T19:50:20.249Z,12.07
2023-05-16T19:52:55.604Z,9.08
2023-05-16T19:55:31.364Z,11.18
2023-05-16T19:58:04.822Z,15.05
2023-05-16T20:00:38.330Z,11.65
2023-05-16T20:03:11.965Z,14.43
2023-05-16T20:05:46.348Z,11.73
2023-05-16T20:08:20.148Z,10.88
2023-05-16T20:10:54.573Z,14.35
2023-05-16T20:13:30.793Z,8.45
2023-05-16T20:16:07.399Z,13.15
2023-05-16T20:18:42.731Z,13.20
2023-05-16T20:21:19.624Z,15.35
2023-05-16T20:23:53.488Z,12.23
2023-05-16T20:26:28.106Z,14.00
2023-05-16T20:29:03.883Z,13.68
2023-05-16T20:31:37.526Z,22.02
2023-05-16T20:34:14.199Z,14.35
2023-05-16T20:36:47.815Z,11.55
2023-05-16T20:39:23.230Z,14.28
2023-05-16T20:41:57.924Z,12.73
2023-05-16T20:44:33.227Z,10.55
2023-05-16T20:47:07.753Z,12.18
2023-05-16T20:49:41.447Z,10.20
2023-05-16T20:52:15.011Z,11.45
2023-05-16T20:54:50.323Z,12.33
2023-05-16T20:57:23.910Z,14.43
2023-05-16T20:59:58.005Z,13.55
2023-05-16T21:02:31.723Z,10.18
2023-05-16T21:05:23.378Z,10.65
2023-05-16T21:07:42.610Z,10.78
2023-05-16T21:10:16.201Z,11.30
2023-05-16T21:12:50.288Z,14.50
2023-05-16T21:15:24.253Z,12.80
2023-05-16T21:17:57.890Z,12.10
2023-05-16T21:20:31.780Z,13.32
2023-05-16T21:23:05.507Z,12.73
2023-05-16T21:25:41.235Z,11.30
2023-05-16T21:28:14.718Z,9.58
2023-05-16T21:30:48.564Z,10.43
2023-05-16T21:33:22.275Z,18.35
2023-05-16T21:35:56.439Z,10.60
2023-05-16T21:38:30.441Z,15.15
2023-05-16T21:41:04.393Z,8.93
2023-05-16T21:43:38.168Z,13.78
2023-05-16T21:46:11.846Z,9.93
2023-05-16T21:48:48.482Z,15.58
2023-05-16T21:54:08.305Z,16.75
2023-05-16T21:56:41.891Z,11.35
2023-05-16T21:59:15.570Z,10.98
2023-05-16T22:01:49.177Z,14.80
2023-05-16T22:04:23.908Z,9.23
2023-05-16T22:06:57.619Z,26.05
2023-05-16T22:09:31.468Z,9.85
2023-05-16T22:12:05.573Z,8.08
2023-05-16T22:14:39.607Z,15.75
2023-05-16T22:17:13.548Z,8.05
2023-05-16T22:19:47.377Z,10.30
2023-05-16T22:22:21.438Z,8.95
2023-05-16T22:24:55.573Z,9.00
2023-05-16T22:27:29.162Z,12.93
2023-05-16T22:30:02.487Z,10.63
2023-05-16T22:32:36.839Z,16.00
2023-05-16T22:35:12.044Z,10.60
2023-05-16T22:37:46.087Z,10.68
2023-05-16T22:40:19.907Z,9.85
2023-05-16T22:42:53.870Z,10.30
2023-05-16T22:45:28.090Z,14.43
2023-05-16T22:48:04.478Z,11.95
2023-05-16T22:50:38.185Z,15.10
2023-05-16T22:53:12.255Z,9.88
2023-05-16T22:55:46.354Z,11.73
2023-05-16T22:58:20.511Z,11.08
2023-05-16T23:00:53.948Z,14.90
2023-05-16T23:03:28.076Z,10.23
2023-05-16T23:06:01.946Z,11.78
2023-05-16T23:08:35.848Z,9.98
2023-05-16T23:11:09.661Z,18.27
2023-05-16T23:13:43.436Z,17.12
2023-05-16T23:16:16.953Z,12.88
2023-05-16T23:18:50.658Z,9.80
2023-05-16T23:21:24.372Z,9.90
2023-05-16T23:23:58.118Z,10.48
2023-05-16T23:26:31.636Z,11.40
2023-05-16T23:29:06.195Z,10.38
2023-05-16T23:31:39.807Z,13.10
2023-05-16T23:34:13.470Z,13.88
2023-05-16T23:36:46.979Z,10.43
2023-05-16T23:39:21.548Z,11.80
2023-05-16T23:41:58.795Z,10.68
2023-05-16T23:44:33.699Z,10.63
2023-05-16T23:47:07.610Z,11.68
2023-05-16T23:49:41.658Z,8.68
2023-05-16T23:52:15.391Z,11.68
2023-05-16T23:54:49.271Z,10.18
2023-05-16T23:57:22.843Z,11.05
2023-05-16T23:59:56.343Z,11.00
